createdAt,value
2022-12-08T00:01:34.258Z,99219.22
2022-12-08T00:04:03.136Z,99213.91
2022-12-08T00:06:50.140Z,99213.09
2022-12-08T00:09:24.376Z,99208.13
2022-12-08T00:11:55.789Z,99210.59
2022-12-08T00:14:29.717Z,99207.63
2022-12-08T00:16:58.914Z,99199.66
2022-12-08T00:19:28.336Z,99194.34
2022-12-08T00:21:56.848Z,99198.50
2022-12-08T00:24:31.007Z,99189.69
2022-12-08T00:26:58.955Z,99194.00
2022-12-08T00:29:26.869Z,99188.72
2022-12-08T00:31:55.138Z,99186.06
2022-12-08T00:34:23.093Z,99179.06
2022-12-08T00:36:51.045Z,99193.19
2022-12-08T00:39:19.265Z,99178.09
2022-12-08T00:42:06.296Z,99186.06
2022-12-08T00:44:34.258Z,99172.59
2022-12-08T00:47:02.202Z,99183.91
2022-12-08T00:49:30.014Z,99179.56
2022-12-08T00:51:58.058Z,99174.75
2022-12-08T00:54:25.948Z,99177.09
2022-12-08T00:56:55.204Z,99172.59
2022-12-08T00:59:23.169Z,99174.56
2022-12-08T01:01:51.234Z,99180.22
2022-12-08T01:04:20.568Z,99180.25
2022-12-08T01:06:49.059Z,99179.03
2022-12-08T01:09:18.388Z,99178.38
2022-12-08T01:11:46.771Z,99175.94
2022-12-08T01:14:16.115Z,99176.75
2022-12-08T01:16:44.479Z,99178.09
2022-12-08T01:19:14.310Z,99177.09
2022-12-08T01:21:43.403Z,99176.41
2022-12-08T01:24:13.211Z,99171.44
2022-12-08T01:26:41.138Z,99169.94
2022-12-08T01:29:09.688Z,99173.09
2022-12-08T01:31:39.326Z,99171.97
2022-12-08T01:34:08.108Z,99179.41
2022-12-08T01:36:38.488Z,99171.75
2022-12-08T01:39:08.885Z,99176.09
2022-12-08T01:41:38.649Z,99159.50
2022-12-08T01:44:39.582Z,99163.16
2022-12-08T01:47:08.893Z,99159.84
2022-12-08T01:49:37.670Z,99163.66
2022-12-08T01:52:15.432Z,99163.81
2022-12-08T01:54:48.324Z,99160.69
2022-12-08T01:57:19.689Z,99156.19
2022-12-08T01:59:54.150Z,99157.84
2022-12-08T02:02:25.538Z,99147.88
2022-12-08T02:04:53.372Z,99149.19
2022-12-08T02:07:23.265Z,99145.72
2022-12-08T02:09:52.681Z,99140.91
2022-12-08T02:12:20.574Z,99144.88
2022-12-08T02:14:48.440Z,99140.91
2022-12-08T02:17:33.251Z,99136.59
2022-12-08T02:20:26.021Z,99130.63
2022-12-08T02:23:03.771Z,99131.91
2022-12-08T02:25:41.261Z,99118.63
2022-12-08T02:28:30.947Z,99126.91
2022-12-08T02:31:12.976Z,99126.75
2022-12-08T02:34:25.728Z,99130.22
2022-12-08T02:37:04.144Z,99123.09
2022-12-08T02:39:40.161Z,99121.09
2022-12-08T02:42:16.080Z,99118.00
2022-12-08T02:44:49.710Z,99127.59
2022-12-08T02:47:20.551Z,99119.94
2022-12-08T02:49:49.914Z,99120.59
2022-12-08T02:52:40.044Z,99116.66
2022-12-08T02:55:13.018Z,99117.16
2022-12-08T02:57:47.452Z,99119.78
2022-12-08T03:00:18.365Z,99119.78
2022-12-08T03:02:59.648Z,99111.66
2022-12-08T03:05:42.188Z,99111.97
2022-12-08T03:08:17.170Z,99109.66
2022-12-08T03:10:53.511Z,99112.13
2022-12-08T03:13:24.659Z,99114.63
2022-12-08T03:15:54.031Z,99108.53
2022-12-08T03:18:28.533Z,99109.16
2022-12-08T03:20:57.775Z,99107.88
2022-12-08T03:23:26.548Z,99106.34
2022-12-08T03:26:03.145Z,99100.84
2022-12-08T03:28:31.790Z,99099.69
2022-12-08T03:31:03.744Z,99092.75
2022-12-08T03:33:34.254Z,99094.75
2022-12-08T03:36:07.198Z,99093.09
2022-12-08T03:38:39.954Z,99089.44
2022-12-08T03:41:19.600Z,99088.03
2022-12-08T03:43:48.627Z,99088.06
2022-12-08T03:46:17.225Z,99081.44
2022-12-08T03:48:45.202Z,99082.91
2022-12-08T03:51:15.024Z,99072.09
2022-12-08T03:53:42.957Z,99076.78
2022-12-08T03:56:17.385Z,99083.72
2022-12-08T03:58:45.659Z,99074.06
2022-12-08T04:01:13.869Z,99068.13
2022-12-08T04:03:41.782Z,99076.81
2022-12-08T04:06:09.739Z,99068.53
2022-12-08T04:08:39.042Z,99065.88
2022-12-08T04:11:07.391Z,99071.84
2022-12-08T04:13:35.649Z,99067.88
2022-12-08T04:16:05.128Z,99074.84
2022-12-08T04:18:33.520Z,99064.88
2022-12-08T04:21:01.590Z,99070.53
2022-12-08T04:23:29.968Z,99058.59
2022-12-08T04:25:59.188Z,99065.88
2022-12-08T04:28:29.436Z,99056.28
2022-12-08T04:30:57.495Z,99051.13
2022-12-08T04:33:25.643Z,99051.63
2022-12-08T04:35:53.611Z,99052.63
2022-12-08T04:38:21.589Z,99051.47
2022-12-08T04:40:49.413Z,99048.97
2022-12-08T04:43:18.660Z,99046.97
2022-12-08T04:45:47.238Z,99046.97
2022-12-08T04:48:15.153Z,99044.97
2022-12-08T04:50:45.082Z,99040.31
2022-12-08T04:53:14.327Z,99042.00
2022-12-08T04:55:43.881Z,99039.16
2022-12-08T04:58:14.839Z,99035.69
2022-12-08T05:00:44.426Z,99041.97
2022-12-08T05:03:12.889Z,99044.63
2022-12-08T05:05:41.981Z,99038.00
2022-12-08T05:08:10.176Z,99039.16
2022-12-08T05:10:38.458Z,99038.00
2022-12-08T05:13:06.365Z,99033.03
2022-12-08T05:15:34.341Z,99037.34
2022-12-08T05:18:03.557Z,99034.69
2022-12-08T05:20:31.451Z,99037.69
2022-12-08T05:22:59.296Z,99035.00
2022-12-08T05:25:27.196Z,99038.00
2022-12-08T05:28:06.149Z,99041.00
2022-12-08T05:30:42.994Z,99031.69
2022-12-08T05:33:12.274Z,99028.38
2022-12-08T05:35:40.113Z,99033.53
2022-12-08T05:38:08.493Z,99026.56
2022-12-08T05:40:38.557Z,99026.06
2022-12-08T05:43:06.528Z,99028.38
2022-12-08T05:45:34.946Z,99017.56
2022-12-08T05:48:03.138Z,99025.31
2022-12-08T05:50:32.689Z,99022.72
2022-12-08T05:53:00.533Z,99026.38
2022-12-08T05:55:28.483Z,99018.56
2022-12-08T05:57:56.368Z,99014.09
2022-12-08T06:00:24.421Z,99018.38
2022-12-08T06:02:52.396Z,99022.22
2022-12-08T06:05:20.357Z,99015.25
2022-12-08T06:07:49.647Z,99012.13
2022-12-08T06:10:17.550Z,99010.81
2022-12-08T06:12:45.557Z,99013.19
2022-12-08T06:15:13.426Z,99006.22
2022-12-08T06:17:41.315Z,99012.47
2022-12-08T06:20:09.932Z,99007.81
2022-12-08T06:22:38.527Z,99011.19
2022-12-08T06:25:10.064Z,99015.50
2022-12-08T06:27:38.274Z,99010.84
2022-12-08T06:30:07.870Z,99006.00
2022-12-08T06:32:35.951Z,99009.53
2022-12-08T06:35:03.832Z,99002.22
2022-12-08T06:37:31.879Z,99008.53
2022-12-08T06:39:59.991Z,99021.09
2022-12-08T06:42:47.350Z,99020.84
2022-12-08T06:45:16.708Z,99014.63
2022-12-08T06:47:44.666Z,99017.00
2022-12-08T06:50:13.943Z,99021.34
2022-12-08T06:52:53.047Z,99020.06
2022-12-08T06:55:57.524Z,99018.59
2022-12-08T06:58:15.977Z,99011.63
2022-12-08T07:00:44.286Z,99014.97
2022-12-08T07:03:13.528Z,99017.50
2022-12-08T07:05:42.292Z,99013.19
2022-12-08T07:08:10.717Z,99013.31
2022-12-08T07:10:38.817Z,99017.31
2022-12-08T07:13:06.707Z,99019.16
2022-12-08T07:15:36.025Z,99018.91
2022-12-08T07:18:03.854Z,99022.88
2022-12-08T07:20:31.849Z,99021.91
2022-12-08T07:22:59.790Z,99029.19
2022-12-08T07:25:27.809Z,99020.06
2022-12-08T07:27:55.702Z,99026.38
2022-12-08T07:30:23.613Z,99029.38
2022-12-08T07:32:52.817Z,99026.03
2022-12-08T07:35:21.583Z,99021.41
2022-12-08T07:37:50.690Z,99028.06
2022-12-08T07:40:18.555Z,99028.63
2022-12-08T07:42:46.391Z,99036.34
2022-12-08T07:45:14.235Z,99031.34
2022-12-08T07:47:42.091Z,99027.34
2022-12-08T07:50:12.203Z,99033.00
2022-12-08T07:52:40.027Z,99027.22
2022-12-08T07:55:08.608Z,99027.22
2022-12-08T07:57:36.538Z,99018.84
2022-12-08T08:00:06.197Z,99017.03
2022-12-08T08:02:34.409Z,99022.00
2022-12-08T08:05:02.572Z,99020.00
2022-12-08T08:07:33.222Z,99020.66
2022-12-08T08:10:01.387Z,99025.47
2022-12-08T08:12:32.126Z,99026.94
2022-12-08T08:15:00.714Z,99021.28
2022-12-08T08:17:28.997Z,99024.34
2022-12-08T08:19:57.492Z,99031.22
2022-12-08T08:22:26.115Z,99021.66
2022-12-08T08:24:55.812Z,99025.81
2022-12-08T08:27:24.977Z,99027.50
2022-12-08T08:29:52.943Z,99031.34
2022-12-08T08:32:21.677Z,99028.44
2022-12-08T08:34:49.492Z,99020.16
2022-12-08T08:37:17.405Z,99025.47
2022-12-08T08:39:45.340Z,99020.53
2022-12-08T08:42:14.625Z,99017.72
2022-12-08T08:44:43.654Z,99018.38
2022-12-08T08:47:12.009Z,99018.56
2022-12-08T08:49:39.858Z,99017.06
2022-12-08T08:52:08.256Z,99029.97
2022-12-08T08:54:36.786Z,99020.31
2022-12-08T08:57:05.093Z,99033.50
2022-12-08T08:59:34.269Z,99016.34
2022-12-08T09:02:02.277Z,99024.53
2022-12-08T09:04:30.229Z,99027.50
2022-12-08T09:06:58.143Z,99019.59
2022-12-08T09:09:25.982Z,99020.31
2022-12-08T09:11:55.300Z,99017.94
2022-12-08T09:14:24.305Z,99017.69
2022-12-08T09:16:53.831Z,99019.22
2022-12-08T09:19:21.872Z,99016.84
2022-12-08T09:21:49.774Z,99014.94
2022-12-08T09:24:17.814Z,99015.94
2022-12-08T09:26:46.903Z,99020.78
2022-12-08T09:29:14.861Z,99021.72
2022-12-08T09:31:43.067Z,99015.44
2022-12-08T09:34:13.801Z,99017.94
2022-12-08T09:36:41.753Z,99018.31
2022-12-08T09:39:09.792Z,99021.56
2022-12-08T09:41:44.781Z,99016.59
2022-12-08T09:44:51.594Z,99013.34
2022-12-08T09:47:26.719Z,99010.88
2022-12-08T09:50:04.779Z,99008.44
2022-12-08T09:52:36.601Z,99006.53
2022-12-08T09:55:10.894Z,99004.88
2022-12-08T09:57:38.817Z,99005.31
2022-12-08T10:00:08.419Z,98997.31
2022-12-08T10:02:36.604Z,98995.91
2022-12-08T10:05:06.609Z,98988.03
2022-12-08T10:07:44.706Z,98988.03
2022-12-08T10:10:26.048Z,98989.47
2022-12-08T10:13:01.489Z,98988.16
2022-12-08T10:15:42.861Z,98980.00
2022-12-08T10:18:15.942Z,98986.31
2022-12-08T10:20:47.415Z,98975.91
2022-12-08T10:23:24.597Z,98974.03
2022-12-08T10:25:56.910Z,98977.69
2022-12-08T10:28:24.860Z,98971.13
2022-12-08T10:30:52.834Z,98970.94
2022-12-08T10:33:22.006Z,98969.47
2022-12-08T10:35:52.742Z,98964.50
2022-12-08T10:38:24.908Z,98964.50
2022-12-08T10:40:57.021Z,98957.16
2022-12-08T10:43:27.093Z,98955.59
2022-12-08T10:45:55.509Z,98957.19
2022-12-08T10:48:26.997Z,98949.72
2022-12-08T10:50:58.799Z,98949.88
2022-12-08T10:53:29.749Z,98945.69
2022-12-08T10:56:07.842Z,98935.59
2022-12-08T10:58:40.590Z,98931.38
2022-12-08T11:01:13.172Z,98929.06
2022-12-08T11:03:47.196Z,98926.88
2022-12-08T11:06:20.195Z,98923.56
2022-12-08T11:08:51.526Z,98927.78
2022-12-08T11:11:24.353Z,98919.59
2022-12-08T11:13:55.569Z,98924.84
2022-12-08T11:16:25.231Z,98912.53
2022-12-08T11:18:58.097Z,98908.25
2022-12-08T11:21:37.701Z,98904.78
2022-12-08T11:24:23.002Z,98911.25
2022-12-08T11:26:55.242Z,98911.94
2022-12-08T11:29:23.641Z,98901.97
2022-12-08T11:31:54.747Z,98902.94
2022-12-08T11:34:32.646Z,98897.19
2022-12-08T11:37:02.946Z,98904.63
2022-12-08T11:39:35.087Z,98899.75
2022-12-08T11:42:05.088Z,98893.31
2022-12-08T11:44:39.783Z,98906.59
2022-12-08T11:47:14.854Z,98889.59
2022-12-08T11:49:44.376Z,98885.66
2022-12-08T11:52:21.560Z,98882.91
2022-12-08T11:54:54.613Z,98877.16
2022-12-08T11:57:25.573Z,98878.31
2022-12-08T11:59:57.403Z,98876.56
2022-12-08T12:02:28.944Z,98872.88
2022-12-08T12:05:02.125Z,98872.03
2022-12-08T12:07:47.576Z,98877.91
2022-12-08T12:10:42.654Z,98871.19
2022-12-08T12:13:22.448Z,98866.25
2022-12-08T12:16:19.127Z,98862.09
2022-12-08T12:18:52.538Z,98861.50
2022-12-08T12:21:23.471Z,98866.31
2022-12-08T12:23:57.750Z,98858.59
2022-12-08T12:26:28.033Z,98858.44
2022-12-08T12:28:59.081Z,98861.38
2022-12-08T12:31:30.064Z,98864.44
2022-12-08T12:34:07.137Z,98862.38
2022-12-08T12:36:50.382Z,98849.25
2022-12-08T12:39:23.327Z,98846.81
2022-12-08T12:41:54.925Z,98843.50
2022-12-08T12:44:44.655Z,98854.00
2022-12-08T12:47:16.384Z,98858.06
2022-12-08T12:50:06.901Z,98863.53
2022-12-08T12:52:48.939Z,98847.97
2022-12-08T12:55:53.127Z,98851.28
2022-12-08T12:58:49.417Z,98841.72
2022-12-08T13:01:57.123Z,98851.63
2022-12-08T13:04:34.298Z,98847.03
2022-12-08T13:07:02.793Z,98850.72
2022-12-08T13:09:36.424Z,98845.50
2022-12-08T13:12:11.351Z,98846.28
2022-12-08T13:14:48.410Z,98843.81
2022-12-08T13:17:24.316Z,98846.41
2022-12-08T13:19:59.415Z,98837.72
2022-12-08T13:23:10.058Z,98838.53
2022-12-08T13:26:19.771Z,98835.84
2022-12-08T13:29:14.227Z,98826.63
2022-12-08T13:31:50.181Z,98821.13
2022-12-08T13:34:23.182Z,98826.69
2022-12-08T13:36:58.484Z,98823.50
2022-12-08T13:39:33.394Z,98822.06
2022-12-08T13:42:04.862Z,98817.16
2022-12-08T13:45:18.440Z,98807.06
2022-12-08T13:47:34.772Z,98813.09
2022-12-08T13:58:41.236Z,98821.31
2022-12-08T14:01:14.889Z,98828.81
2022-12-08T14:04:20.477Z,98827.63
2022-12-08T14:06:40.573Z,98823.25
2022-12-08T14:09:13.340Z,98825.69
2022-12-08T14:11:43.971Z,98833.91
2022-12-08T14:14:32.652Z,98826.06
2022-12-08T14:17:11.549Z,98827.84
2022-12-08T14:19:44.216Z,98823.72
2022-12-08T14:22:13.793Z,98823.25
2022-12-08T14:24:45.459Z,98825.84
2022-12-08T14:27:21.055Z,98819.31
2022-12-08T14:29:52.330Z,98823.63
2022-12-08T14:32:30.333Z,98827.81
2022-12-08T14:35:03.501Z,98824.16
2022-12-08T14:37:34.908Z,98832.63
2022-12-08T14:40:07.600Z,98818.59
2022-12-08T14:42:44.785Z,98824.44
2022-12-08T14:45:16.087Z,98824.50
2022-12-08T14:47:44.429Z,98828.03
2022-12-08T14:50:42.025Z,98835.00
2022-12-08T14:53:16.470Z,98835.75
2022-12-08T14:55:47.681Z,98836.16
2022-12-08T14:58:20.951Z,98830.38
2022-12-08T15:00:51.749Z,98834.50
2022-12-08T15:03:22.778Z,98841.31
2022-12-08T15:05:54.649Z,98835.00
2022-12-08T15:08:23.031Z,98838.94
2022-12-08T15:11:20.691Z,98844.34
2022-12-08T15:13:50.756Z,98845.72
2022-12-08T15:16:27.503Z,98847.66
2022-12-08T15:19:19.008Z,98838.75
2022-12-08T15:21:48.618Z,98838.56
2022-12-08T15:24:18.129Z,98837.84
2022-12-08T15:26:48.878Z,98838.22
2022-12-08T15:29:21.865Z,98834.81
2022-12-08T15:31:50.126Z,98835.72
2022-12-08T15:34:18.193Z,98832.38
2022-12-08T15:36:46.418Z,98836.88
2022-12-08T15:39:26.839Z,98827.31
2022-12-08T15:41:54.825Z,98826.78
2022-12-08T15:44:22.932Z,98826.13
2022-12-08T15:46:51.165Z,98828.66
2022-12-08T15:49:20.831Z,98831.47
2022-12-08T15:51:49.152Z,98829.38
2022-12-08T15:54:17.601Z,98830.34
2022-12-08T15:57:18.100Z,98834.69
2022-12-08T15:59:38.993Z,98832.81
2022-12-08T16:02:07.211Z,98834.34
2022-12-08T16:05:25.289Z,98833.28
2022-12-08T16:07:28.438Z,98832.00
2022-12-08T16:09:57.334Z,98832.38
2022-12-08T16:13:54.757Z,98835.88
2022-12-08T16:15:55.126Z,98828.72
2022-12-08T16:18:29.645Z,98842.13
2022-12-08T16:21:09.656Z,98841.63
2022-12-08T16:23:45.804Z,98846.63
2022-12-08T16:26:28.428Z,98842.78
2022-12-08T16:29:06.251Z,98847.16
2022-12-08T16:31:34.535Z,98842.94
2022-12-08T16:34:02.523Z,98840.13
2022-12-08T16:36:30.506Z,98853.06
2022-12-08T16:38:58.537Z,98852.22
2022-12-08T16:41:43.957Z,98847.84
2022-12-08T16:44:13.249Z,98855.72
2022-12-08T16:46:41.255Z,98851.34
2022-12-08T16:49:10.994Z,98850.50
2022-12-08T16:51:38.934Z,98854.19
2022-12-08T16:54:06.827Z,98852.53
2022-12-08T16:56:34.802Z,98857.31
2022-12-08T16:59:03.210Z,98849.56
2022-12-08T17:01:32.638Z,98848.38
2022-12-08T17:04:29.731Z,98843.06
2022-12-08T17:06:50.971Z,98844.25
2022-12-08T17:09:19.072Z,98839.41
2022-12-08T17:11:47.043Z,98839.75
2022-12-08T17:14:16.194Z,98843.72
2022-12-08T17:16:46.091Z,98841.78
2022-12-08T17:19:15.270Z,98836.22
2022-12-08T17:21:43.213Z,98839.75
2022-12-08T17:24:11.277Z,98836.47
2022-12-08T17:26:39.115Z,98833.63
2022-12-08T17:29:07.040Z,98829.97
2022-12-08T17:31:35.158Z,98830.44
2022-12-08T17:34:06.270Z,98830.78
2022-12-08T17:36:34.127Z,98821.97
2022-12-08T17:39:02.750Z,98827.84
2022-12-08T17:41:31.035Z,98827.84
2022-12-08T17:43:59.046Z,98827.84
2022-12-08T17:46:26.996Z,98829.44
2022-12-08T17:48:55.793Z,98832.09
2022-12-08T17:51:25.341Z,98840.72
2022-12-08T17:53:53.317Z,98839.75
2022-12-08T17:56:22.440Z,98831.84
2022-12-08T17:58:54.543Z,98833.16
2022-12-08T18:01:23.784Z,98832.31
2022-12-08T18:03:52.415Z,98827.00
2022-12-08T18:06:21.114Z,98833.69
2022-12-08T18:08:50.815Z,98822.53
2022-12-08T18:11:22.830Z,98820.50
2022-12-08T18:13:51.875Z,98831.78
2022-12-08T18:16:21.236Z,98829.13
2022-12-08T18:18:49.469Z,98829.13
2022-12-08T18:21:23.320Z,98831.56
2022-12-08T18:23:53.117Z,98824.16
2022-12-08T18:26:21.616Z,98824.78
2022-12-08T18:28:49.633Z,98828.34
2022-12-08T18:31:20.410Z,98824.41
2022-12-08T18:33:49.367Z,98824.31
2022-12-08T18:36:20.729Z,98816.69
2022-12-08T18:38:49.248Z,98819.66
2022-12-08T18:41:23.361Z,98818.25
2022-12-08T18:43:52.112Z,98816.81
2022-12-08T18:46:20.135Z,98814.53
2022-12-08T18:48:49.804Z,98821.41
2022-12-08T18:51:19.971Z,98814.25
2022-12-08T18:53:48.434Z,98820.28
2022-12-08T18:56:25.417Z,98815.34
2022-12-08T18:58:57.281Z,98819.00
2022-12-08T19:01:27.954Z,98806.06
2022-12-08T19:04:26.931Z,98819.34
2022-12-08T19:06:45.223Z,98811.38
2022-12-08T19:09:14.261Z,98812.38
2022-12-08T19:11:44.524Z,98809.56
2022-12-08T19:14:12.920Z,98813.69
2022-12-08T19:16:40.831Z,98815.88
2022-12-08T19:19:08.733Z,98816.41
2022-12-08T19:21:42.931Z,98813.41
2022-12-08T19:24:13.968Z,98806.44
2022-12-08T19:26:43.439Z,98800.94
2022-12-08T19:29:11.959Z,98810.97
2022-12-08T19:31:40.181Z,98808.09
2022-12-08T19:34:09.275Z,98809.91
2022-12-08T19:36:42.333Z,98811.09
2022-12-08T19:39:33.107Z,98813.91
2022-12-08T19:42:20.268Z,98816.28
2022-12-08T19:44:54.455Z,98804.47
2022-12-08T19:47:24.011Z,98803.53
2022-12-08T19:49:51.998Z,98810.41
2022-12-08T19:52:20.145Z,98804.69
2022-12-08T19:54:48.427Z,98799.41
2022-12-08T19:57:17.770Z,98794.34
2022-12-08T19:59:45.709Z,98798.34
2022-12-08T20:02:13.639Z,98799.66
2022-12-08T20:04:41.583Z,98800.47
2022-12-08T20:07:13.437Z,98804.97
2022-12-08T20:09:41.424Z,98801.78
2022-12-08T20:12:09.482Z,98812.16
2022-12-08T20:14:44.122Z,98803.88
2022-12-08T20:17:13.913Z,98810.28
2022-12-08T20:19:41.954Z,98806.13
2022-12-08T20:22:09.890Z,98807.78
2022-12-08T20:24:37.788Z,98812.56
2022-12-08T20:27:05.747Z,98813.09
2022-12-08T20:29:34.610Z,98814.09
2022-12-08T20:32:04.456Z,98813.78
2022-12-08T20:34:32.777Z,98811.56
2022-12-08T20:37:00.656Z,98813.75
2022-12-08T20:39:28.571Z,98812.06
2022-12-08T20:41:56.676Z,98812.84
2022-12-08T20:44:24.684Z,98811.22
2022-12-08T20:46:52.781Z,98812.84
2022-12-08T20:49:22.329Z,98814.50
2022-12-08T20:51:50.227Z,98819.19
2022-12-08T20:54:18.199Z,98813.59
2022-12-08T20:56:48.539Z,98813.88
2022-12-08T20:59:18.215Z,98819.59
2022-12-08T21:01:46.457Z,98813.22
2022-12-08T21:04:14.952Z,98816.16
2022-12-08T21:06:44.424Z,98814.50
2022-12-08T21:09:12.548Z,98814.50
2022-12-08T21:11:40.696Z,98809.28
2022-12-08T21:14:08.834Z,98815.31
2022-12-08T21:16:37.447Z,98809.56
2022-12-08T21:19:06.192Z,98811.41
2022-12-08T21:21:34.333Z,98814.50
2022-12-08T21:24:04.873Z,98810.50
2022-12-08T21:26:32.792Z,98809.00
2022-12-08T21:29:00.688Z,98811.22
2022-12-08T21:31:31.836Z,98805.63
2022-12-08T21:34:00.279Z,98814.06
2022-12-08T21:36:28.636Z,98809.56
2022-12-08T21:38:58.241Z,98810.28
2022-12-08T21:41:45.828Z,98801.13
2022-12-08T21:44:15.835Z,98805.25
2022-12-08T21:46:43.833Z,98806.75
2022-12-08T21:49:11.761Z,98807.19
2022-12-08T21:51:42.269Z,98804.81
2022-12-08T21:54:16.675Z,98804.69
2022-12-08T21:56:48.807Z,98805.38
2022-12-08T21:59:17.790Z,98814.16
2022-12-08T22:01:45.969Z,98808.84
2022-12-08T22:04:19.539Z,98812.41
2022-12-08T22:06:47.733Z,98810.50
2022-12-08T22:09:15.875Z,98813.16
2022-12-08T22:11:44.851Z,98807.84
2022-12-08T22:14:15.365Z,98812.84
2022-12-08T22:16:44.195Z,98803.88
2022-12-08T22:19:12.525Z,98804.97
2022-12-08T22:21:41.092Z,98796.16
2022-12-08T22:24:09.416Z,98805.63
2022-12-08T22:26:37.498Z,98802.47
2022-12-08T22:29:05.609Z,98796.91
2022-12-08T22:31:35.296Z,98802.59
2022-12-08T22:34:03.391Z,98806.09
2022-12-08T22:36:31.595Z,98803.97
2022-12-08T22:38:59.586Z,98802.31
2022-12-08T22:41:27.534Z,98801.66
2022-12-08T22:43:55.693Z,98799.66
2022-12-08T22:46:25.337Z,98800.94
2022-12-08T22:48:55.944Z,98796.66
2022-12-08T22:51:24.023Z,98797.28
2022-12-08T22:53:52.398Z,98796.00
2022-12-08T22:56:20.846Z,98790.56
2022-12-08T22:58:48.889Z,98787.72
2022-12-08T23:01:29.073Z,98791.38
2022-12-08T23:03:59.320Z,98789.78
2022-12-08T23:06:28.669Z,98791.25
2022-12-08T23:08:57.259Z,98791.78
2022-12-08T23:11:27.222Z,98791.94
2022-12-08T23:13:56.245Z,98789.13
2022-12-08T23:16:24.520Z,98786.41
2022-12-08T23:18:52.476Z,98777.84
2022-12-08T23:21:22.255Z,98780.72
2022-12-08T23:23:50.181Z,98782.06
2022-12-08T23:26:21.550Z,98778.84
2022-12-08T23:28:49.639Z,98776.84
2022-12-08T23:31:18.312Z,98771.31
2022-12-08T23:33:47.065Z,98767.78
2022-12-08T23:36:16.072Z,98773.38
2022-12-08T23:38:45.646Z,98766.78
2022-12-08T23:41:15.527Z,98770.97
2022-12-08T23:43:46.360Z,98767.88
2022-12-08T23:46:14.454Z,98767.78
2022-12-08T23:48:42.765Z,98762.47
2022-12-08T23:51:10.815Z,98757.34
2022-12-08T23:53:39.019Z,98755.38
2022-12-08T23:56:10.592Z,98759.22
2022-12-08T23:58:39.026Z,98756.34
